sensor_id;sensor_type;location;lat;lon;timestamp;temperature;humidity
9103;DHT22;4587;51.434;6.788;2022-10-22T00:00:14;14.80;99.90
9103;DHT22;4587;51.434;6.788;2022-10-22T00:02:41;14.90;99.90
9103;DHT22;4587;51.434;6.788;2022-10-22T00:05:07;14.80;99.90
9103;DHT22;4587;51.434;6.788;2022-10-22T00:07:33;14.80;99.90
9103;DHT22;4587;51.434;6.788;2022-10-22T00:09:59;14.80;99.90
9103;DHT22;4587;51.434;6.788;2022-10-22T00:12:25;14.90;99.90
9103;DHT22;4587;51.434;6.788;2022-10-22T00:14:51;14.80;99.90
9103;DHT22;4587;51.434;6.788;2022-10-22T00:17:16;14.80;99.90
9103;DHT22;4587;51.434;6.788;2022-10-22T00:19:42;14.80;99.90
9103;DHT22;4587;51.434;6.788;2022-10-22T00:22:08;14.70;99.90
9103;DHT22;4587;51.434;6.788;2022-10-22T00:24:35;14.70;99.90
9103;DHT22;4587;51.434;6.788;2022-10-22T00:27:01;14.60;99.90
9103;DHT22;4587;51.434;6.788;2022-10-22T00:29:27;14.70;99.90
9103;DHT22;4587;51.434;6.788;2022-10-22T00:31:53;14.60;99.90
9103;DHT22;4587;51.434;6.788;2022-10-22T00:34:21;14.60;99.90
9103;DHT22;4587;51.434;6.788;2022-10-22T00:36:48;14.60;99.90
9103;DHT22;4587;51.434;6.788;2022-10-22T00:39:15;14.70;99.90
9103;DHT22;4587;51.434;6.788;2022-10-22T00:41:42;14.70;99.90
9103;DHT22;4587;51.434;6.788;2022-10-22T00:47:13;14.60;99.90
9103;DHT22;4587;51.434;6.788;2022-10-22T00:49:39;14.60;99.90
9103;DHT22;4587;51.434;6.788;2022-10-22T00:52:05;14.60;99.90
9103;DHT22;4587;51.434;6.788;2022-10-22T00:54:31;14.60;99.90
9103;DHT22;4587;51.434;6.788;2022-10-22T00:56:57;14.60;99.90
9103;DHT22;4587;51.434;6.788;2022-10-22T00:59:23;14.60;99.90
9103;DHT22;4587;51.434;6.788;2022-10-22T01:01:48;14.60;99.90
9103;DHT22;4587;51.434;6.788;2022-10-22T01:04:15;14.60;99.90
9103;DHT22;4587;51.434;6.788;2022-10-22T01:06:41;14.60;99.90
9103;DHT22;4587;51.434;6.788;2022-10-22T01:09:23;14.70;99.90
9103;DHT22;4587;51.434;6.788;2022-10-22T01:17:40;14.70;99.90
9103;DHT22;4587;51.434;6.788;2022-10-22T01:20:38;14.70;99.90
9103;DHT22;4587;51.434;6.788;2022-10-22T01:26:20;14.70;99.90
9103;DHT22;4587;51.434;6.788;2022-10-22T01:29:09;14.60;99.90
9103;DHT22;4587;51.434;6.788;2022-10-22T01:31:42;14.60;99.90
9103;DHT22;4587;51.434;6.788;2022-10-22T01:34:11;14.60;99.90
9103;DHT22;4587;51.434;6.788;2022-10-22T01:36:39;14.60;99.90
9103;DHT22;4587;51.434;6.788;2022-10-22T01:39:06;14.60;99.90
9103;DHT22;4587;51.434;6.788;2022-10-22T01:41:33;14.60;99.90
9103;DHT22;4587;51.434;6.788;2022-10-22T01:43:59;14.60;99.90
9103;DHT22;4587;51.434;6.788;2022-10-22T01:46:26;14.60;99.90
9103;DHT22;4587;51.434;6.788;2022-10-22T01:54:40;14.60;99.90
9103;DHT22;4587;51.434;6.788;2022-10-22T01:57:40;14.70;99.90
9103;DHT22;4587;51.434;6.788;2022-10-22T02:00:12;14.70;99.90
9103;DHT22;4587;51.434;6.788;2022-10-22T02:02:47;14.60;99.90
9103;DHT22;4587;51.434;6.788;2022-10-22T02:05:50;14.60;99.90
9103;DHT22;4587;51.434;6.788;2022-10-22T02:08:21;14.70;99.90
9103;DHT22;4587;51.434;6.788;2022-10-22T02:10:48;14.60;99.90
9103;DHT22;4587;51.434;6.788;2022-10-22T02:13:30;14.50;99.90
9103;DHT22;4587;51.434;6.788;2022-10-22T02:15:58;14.60;99.90
9103;DHT22;4587;51.434;6.788;2022-10-22T02:18:29;14.60;99.90
9103;DHT22;4587;51.434;6.788;2022-10-22T02:20:57;14.60;99.90
9103;DHT22;4587;51.434;6.788;2022-10-22T02:23:23;14.60;99.90
9103;DHT22;4587;51.434;6.788;2022-10-22T02:25:54;14.60;99.90
9103;DHT22;4587;51.434;6.788;2022-10-22T02:28:26;14.60;99.90
9103;DHT22;4587;51.434;6.788;2022-10-22T02:30:56;14.60;99.90
9103;DHT22;4587;51.434;6.788;2022-10-22T02:33:35;14.60;99.90
9103;DHT22;4587;51.434;6.788;2022-10-22T02:36:04;14.60;99.90
9103;DHT22;4587;51.434;6.788;2022-10-22T02:38:30;14.60;99.90
9103;DHT22;4587;51.434;6.788;2022-10-22T02:40:56;14.70;99.90
9103;DHT22;4587;51.434;6.788;2022-10-22T02:43:23;14.70;99.90
9103;DHT22;4587;51.434;6.788;2022-10-22T02:45:49;14.80;99.90
9103;DHT22;4587;51.434;6.788;2022-10-22T02:48:14;14.80;99.90
9103;DHT22;4587;51.434;6.788;2022-10-22T02:50:40;14.80;99.90
9103;DHT22;4587;51.434;6.788;2022-10-22T02:53:06;14.90;99.90
9103;DHT22;4587;51.434;6.788;2022-10-22T02:55:31;14.90;99.90
9103;DHT22;4587;51.434;6.788;2022-10-22T02:57:57;14.80;99.90
9103;DHT22;4587;51.434;6.788;2022-10-22T03:00:22;14.80;99.90
9103;DHT22;4587;51.434;6.788;2022-10-22T03:02:48;14.90;99.90
9103;DHT22;4587;51.434;6.788;2022-10-22T03:05:13;14.90;99.90
9103;DHT22;4587;51.434;6.788;2022-10-22T03:07:39;14.80;99.90
9103;DHT22;4587;51.434;6.788;2022-10-22T03:10:05;14.90;99.90
9103;DHT22;4587;51.434;6.788;2022-10-22T03:12:31;14.90;99.90
9103;DHT22;4587;51.434;6.788;2022-10-22T03:14:56;14.90;99.90
9103;DHT22;4587;51.434;6.788;2022-10-22T03:17:22;14.90;99.90
9103;DHT22;4587;51.434;6.788;2022-10-22T03:19:47;14.90;99.90
9103;DHT22;4587;51.434;6.788;2022-10-22T03:22:18;14.90;99.90
9103;DHT22;4587;51.434;6.788;2022-10-22T03:24:49;14.90;99.90
9103;DHT22;4587;51.434;6.788;2022-10-22T03:27:17;14.90;99.90
9103;DHT22;4587;51.434;6.788;2022-10-22T03:29:44;14.80;99.90
9103;DHT22;4587;51.434;6.788;2022-10-22T03:32:11;14.70;99.90
9103;DHT22;4587;51.434;6.788;2022-10-22T03:34:37;14.80;99.90
9103;DHT22;4587;51.434;6.788;2022-10-22T03:37:02;14.70;99.90
9103;DHT22;4587;51.434;6.788;2022-10-22T03:39:30;14.70;99.90
9103;DHT22;4587;51.434;6.788;2022-10-22T03:41:56;14.70;99.90
9103;DHT22;4587;51.434;6.788;2022-10-22T03:44:22;14.60;99.90
9103;DHT22;4587;51.434;6.788;2022-10-22T03:46:48;14.50;99.90
9103;DHT22;4587;51.434;6.788;2022-10-22T03:49:14;14.60;99.90
9103;DHT22;4587;51.434;6.788;2022-10-22T03:51:40;14.50;99.90
9103;DHT22;4587;51.434;6.788;2022-10-22T03:54:05;14.60;99.90
9103;DHT22;4587;51.434;6.788;2022-10-22T03:56:31;14.60;99.90
9103;DHT22;4587;51.434;6.788;2022-10-22T03:58:58;14.60;99.90
9103;DHT22;4587;51.434;6.788;2022-10-22T04:01:25;14.60;99.90
9103;DHT22;4587;51.434;6.788;2022-10-22T04:03:51;14.60;99.90
9103;DHT22;4587;51.434;6.788;2022-10-22T04:06:17;14.50;99.90
9103;DHT22;4587;51.434;6.788;2022-10-22T04:08:44;14.60;99.90
9103;DHT22;4587;51.434;6.788;2022-10-22T04:11:10;14.60;99.90
9103;DHT22;4587;51.434;6.788;2022-10-22T04:13:37;14.60;99.90
9103;DHT22;4587;51.434;6.788;2022-10-22T04:16:14;14.60;99.90
9103;DHT22;4587;51.434;6.788;2022-10-22T04:18:40;14.60;99.90
9103;DHT22;4587;51.434;6.788;2022-10-22T04:21:08;14.50;99.90
9103;DHT22;4587;51.434;6.788;2022-10-22T04:23:34;14.50;99.90
9103;DHT22;4587;51.434;6.788;2022-10-22T04:26:01;14.50;99.90
9103;DHT22;4587;51.434;6.788;2022-10-22T04:28:26;14.40;99.90
9103;DHT22;4587;51.434;6.788;2022-10-22T04:30:52;14.40;99.90
9103;DHT22;4587;51.434;6.788;2022-10-22T04:33:18;14.50;99.90
9103;DHT22;4587;51.434;6.788;2022-10-22T04:35:44;14.40;99.90
9103;DHT22;4587;51.434;6.788;2022-10-22T04:38:10;14.40;99.90
9103;DHT22;4587;51.434;6.788;2022-10-22T04:40:36;14.40;99.90
9103;DHT22;4587;51.434;6.788;2022-10-22T04:43:02;14.40;99.90
9103;DHT22;4587;51.434;6.788;2022-10-22T04:45:27;14.40;99.90
9103;DHT22;4587;51.434;6.788;2022-10-22T04:47:53;14.40;99.90
9103;DHT22;4587;51.434;6.788;2022-10-22T04:50:19;14.30;99.90
9103;DHT22;4587;51.434;6.788;2022-10-22T04:52:44;14.30;99.90
9103;DHT22;4587;51.434;6.788;2022-10-22T04:55:10;14.30;99.90
9103;DHT22;4587;51.434;6.788;2022-10-22T04:57:35;14.30;99.90
9103;DHT22;4587;51.434;6.788;2022-10-22T05:00:01;14.30;99.90
9103;DHT22;4587;51.434;6.788;2022-10-22T05:02:26;14.20;99.90
9103;DHT22;4587;51.434;6.788;2022-10-22T05:04:52;14.20;99.90
9103;DHT22;4587;51.434;6.788;2022-10-22T05:07:17;14.20;99.90
9103;DHT22;4587;51.434;6.788;2022-10-22T05:09:43;14.20;99.90
9103;DHT22;4587;51.434;6.788;2022-10-22T05:12:09;14.20;99.90
9103;DHT22;4587;51.434;6.788;2022-10-22T05:14:34;14.10;99.90
9103;DHT22;4587;51.434;6.788;2022-10-22T05:17:00;14.20;99.90
9103;DHT22;4587;51.434;6.788;2022-10-22T05:19:29;14.10;99.90
9103;DHT22;4587;51.434;6.788;2022-10-22T05:22:00;14.00;99.90
9103;DHT22;4587;51.434;6.788;2022-10-22T05:24:27;14.10;99.90
9103;DHT22;4587;51.434;6.788;2022-10-22T05:26:54;14.10;99.90
9103;DHT22;4587;51.434;6.788;2022-10-22T05:29:21;14.10;99.90
9103;DHT22;4587;51.434;6.788;2022-10-22T05:31:47;14.10;99.90
9103;DHT22;4587;51.434;6.788;2022-10-22T05:34:13;14.00;99.90
9103;DHT22;4587;51.434;6.788;2022-10-22T05:36:38;14.00;99.90
9103;DHT22;4587;51.434;6.788;2022-10-22T05:39:04;14.00;99.90
9103;DHT22;4587;51.434;6.788;2022-10-22T05:41:32;14.00;99.90
9103;DHT22;4587;51.434;6.788;2022-10-22T05:43:58;14.00;99.90
9103;DHT22;4587;51.434;6.788;2022-10-22T05:46:27;13.90;99.90
9103;DHT22;4587;51.434;6.788;2022-10-22T05:48:55;13.90;99.90
9103;DHT22;4587;51.434;6.788;2022-10-22T05:51:22;14.00;99.90
9103;DHT22;4587;51.434;6.788;2022-10-22T05:53:57;13.90;99.90
9103;DHT22;4587;51.434;6.788;2022-10-22T05:56:23;13.80;99.90
9103;DHT22;4587;51.434;6.788;2022-10-22T05:58:49;13.80;99.90
9103;DHT22;4587;51.434;6.788;2022-10-22T06:01:19;13.80;99.90
9103;DHT22;4587;51.434;6.788;2022-10-22T06:03:45;13.90;99.90
9103;DHT22;4587;51.434;6.788;2022-10-22T06:06:20;13.80;99.90
9103;DHT22;4587;51.434;6.788;2022-10-22T06:08:48;13.80;99.90
9103;DHT22;4587;51.434;6.788;2022-10-22T06:11:14;13.80;99.90
9103;DHT22;4587;51.434;6.788;2022-10-22T06:13:42;13.80;99.90
9103;DHT22;4587;51.434;6.788;2022-10-22T06:16:08;13.80;99.90
9103;DHT22;4587;51.434;6.788;2022-10-22T06:18:33;13.80;99.90
9103;DHT22;4587;51.434;6.788;2022-10-22T06:21:11;13.80;99.90
9103;DHT22;4587;51.434;6.788;2022-10-22T06:23:37;13.80;99.90
9103;DHT22;4587;51.434;6.788;2022-10-22T06:26:04;13.90;99.90
9103;DHT22;4587;51.434;6.788;2022-10-22T06:28:31;14.00;99.90
9103;DHT22;4587;51.434;6.788;2022-10-22T06:30:57;14.00;99.90
9103;DHT22;4587;51.434;6.788;2022-10-22T06:33:24;14.00;99.90
9103;DHT22;4587;51.434;6.788;2022-10-22T06:35:49;14.10;99.90
9103;DHT22;4587;51.434;6.788;2022-10-22T06:38:15;14.10;99.90
9103;DHT22;4587;51.434;6.788;2022-10-22T06:40:41;14.20;99.90
9103;DHT22;4587;51.434;6.788;2022-10-22T06:43:10;14.20;99.90
9103;DHT22;4587;51.434;6.788;2022-10-22T06:45:36;14.20;99.90
9103;DHT22;4587;51.434;6.788;2022-10-22T06:48:02;14.20;99.90
9103;DHT22;4587;51.434;6.788;2022-10-22T06:50:28;14.30;99.90
9103;DHT22;4587;51.434;6.788;2022-10-22T06:52:53;14.30;99.90
9103;DHT22;4587;51.434;6.788;2022-10-22T06:55:19;14.40;99.90
9103;DHT22;4587;51.434;6.788;2022-10-22T06:57:44;14.60;99.90
9103;DHT22;4587;51.434;6.788;2022-10-22T07:00:10;14.90;99.90
9103;DHT22;4587;51.434;6.788;2022-10-22T07:02:36;15.30;99.90
9103;DHT22;4587;51.434;6.788;2022-10-22T07:05:02;16.10;99.90
9103;DHT22;4587;51.434;6.788;2022-10-22T07:07:27;17.10;99.90
9103;DHT22;4587;51.434;6.788;2022-10-22T07:09:53;17.80;99.90
9103;DHT22;4587;51.434;6.788;2022-10-22T07:12:19;17.90;99.90
9103;DHT22;4587;51.434;6.788;2022-10-22T07:14:44;17.80;99.90
9103;DHT22;4587;51.434;6.788;2022-10-22T07:17:10;18.20;99.90
9103;DHT22;4587;51.434;6.788;2022-10-22T07:19:35;18.90;99.90
9103;DHT22;4587;51.434;6.788;2022-10-22T07:22:01;19.80;99.90
9103;DHT22;4587;51.434;6.788;2022-10-22T07:24:27;20.00;99.90
9103;DHT22;4587;51.434;6.788;2022-10-22T07:26:53;20.30;99.90
9103;DHT22;4587;51.434;6.788;2022-10-22T07:29:18;19.90;99.90
9103;DHT22;4587;51.434;6.788;2022-10-22T07:31:44;19.10;99.90
9103;DHT22;4587;51.434;6.788;2022-10-22T07:34:10;18.50;99.90
9103;DHT22;4587;51.434;6.788;2022-10-22T07:36:35;18.00;99.90
9103;DHT22;4587;51.434;6.788;2022-10-22T07:39:01;17.70;99.90
9103;DHT22;4587;51.434;6.788;2022-10-22T07:41:28;17.60;99.90
9103;DHT22;4587;51.434;6.788;2022-10-22T07:43:55;17.60;99.90
9103;DHT22;4587;51.434;6.788;2022-10-22T07:46:22;17.40;99.90
9103;DHT22;4587;51.434;6.788;2022-10-22T07:48:48;17.50;99.90
9103;DHT22;4587;51.434;6.788;2022-10-22T07:51:14;18.40;99.90
9103;DHT22;4587;51.434;6.788;2022-10-22T07:53:39;18.50;99.90
9103;DHT22;4587;51.434;6.788;2022-10-22T07:56:05;18.20;99.90
9103;DHT22;4587;51.434;6.788;2022-10-22T07:58:31;17.80;99.90
9103;DHT22;4587;51.434;6.788;2022-10-22T08:00:58;17.50;99.90
9103;DHT22;4587;51.434;6.788;2022-10-22T08:03:27;17.30;99.90
9103;DHT22;4587;51.434;6.788;2022-10-22T08:05:54;17.20;99.90
9103;DHT22;4587;51.434;6.788;2022-10-22T08:08:20;17.10;99.90
9103;DHT22;4587;51.434;6.788;2022-10-22T08:10:47;17.30;99.90
9103;DHT22;4587;51.434;6.788;2022-10-22T08:13:13;17.40;99.90
9103;DHT22;4587;51.434;6.788;2022-10-22T08:15:39;17.50;99.90
9103;DHT22;4587;51.434;6.788;2022-10-22T08:18:05;17.40;99.90
9103;DHT22;4587;51.434;6.788;2022-10-22T08:20:30;17.20;99.90
9103;DHT22;4587;51.434;6.788;2022-10-22T08:22:56;17.20;99.90
9103;DHT22;4587;51.434;6.788;2022-10-22T08:25:23;17.10;99.90
9103;DHT22;4587;51.434;6.788;2022-10-22T08:27:48;17.10;99.90
9103;DHT22;4587;51.434;6.788;2022-10-22T08:30:14;17.00;99.90
9103;DHT22;4587;51.434;6.788;2022-10-22T08:32:40;16.90;99.90
9103;DHT22;4587;51.434;6.788;2022-10-22T08:35:06;17.00;99.90
9103;DHT22;4587;51.434;6.788;2022-10-22T08:37:31;16.90;99.90
9103;DHT22;4587;51.434;6.788;2022-10-22T08:39:57;16.90;99.90
9103;DHT22;4587;51.434;6.788;2022-10-22T08:45:28;16.90;99.90
9103;DHT22;4587;51.434;6.788;2022-10-22T08:48:22;16.70;99.90
9103;DHT22;4587;51.434;6.788;2022-10-22T08:50:56;16.70;99.90
9103;DHT22;4587;51.434;6.788;2022-10-22T08:53:31;16.80;99.90
9103;DHT22;4587;51.434;6.788;2022-10-22T08:55:58;16.80;99.90
9103;DHT22;4587;51.434;6.788;2022-10-22T08:58:35;16.80;99.90
9103;DHT22;4587;51.434;6.788;2022-10-22T09:01:32;16.80;99.90
9103;DHT22;4587;51.434;6.788;2022-10-22T09:04:20;16.80;99.90
9103;DHT22;4587;51.434;6.788;2022-10-22T09:06:51;16.90;99.90
9103;DHT22;4587;51.434;6.788;2022-10-22T09:09:19;16.90;99.90
9103;DHT22;4587;51.434;6.788;2022-10-22T09:11:48;17.00;99.90
9103;DHT22;4587;51.434;6.788;2022-10-22T09:14:17;17.00;99.90
9103;DHT22;4587;51.434;6.788;2022-10-22T09:19:25;17.00;99.90
9103;DHT22;4587;51.434;6.788;2022-10-22T09:25:08;17.10;99.90
9103;DHT22;4587;51.434;6.788;2022-10-22T09:27:35;17.10;99.90
9103;DHT22;4587;51.434;6.788;2022-10-22T09:30:01;17.20;99.90
9103;DHT22;4587;51.434;6.788;2022-10-22T09:32:27;17.20;99.90
9103;DHT22;4587;51.434;6.788;2022-10-22T09:34:56;17.20;99.90
9103;DHT22;4587;51.434;6.788;2022-10-22T09:37:25;17.20;99.90
9103;DHT22;4587;51.434;6.788;2022-10-22T09:39:53;17.20;99.90
9103;DHT22;4587;51.434;6.788;2022-10-22T09:42:19;17.10;99.90
9103;DHT22;4587;51.434;6.788;2022-10-22T09:44:57;17.10;99.90
9103;DHT22;4587;51.434;6.788;2022-10-22T09:47:41;17.20;99.90
9103;DHT22;4587;51.434;6.788;2022-10-22T09:53:00;17.20;99.90
9103;DHT22;4587;51.434;6.788;2022-10-22T09:55:28;17.30;99.90
9103;DHT22;4587;51.434;6.788;2022-10-22T09:57:56;17.40;99.90
9103;DHT22;4587;51.434;6.788;2022-10-22T10:00:23;17.50;99.90
9103;DHT22;4587;51.434;6.788;2022-10-22T10:02:56;17.50;99.90
9103;DHT22;4587;51.434;6.788;2022-10-22T10:05:40;17.60;99.90
9103;DHT22;4587;51.434;6.788;2022-10-22T10:08:12;17.70;99.90
9103;DHT22;4587;51.434;6.788;2022-10-22T10:13:46;17.70;99.90
9103;DHT22;4587;51.434;6.788;2022-10-22T10:19:10;17.60;99.90
9103;DHT22;4587;51.434;6.788;2022-10-22T10:30:19;17.70;99.90
9103;DHT22;4587;51.434;6.788;2022-10-22T10:33:10;17.80;99.90
9103;DHT22;4587;51.434;6.788;2022-10-22T10:38:37;17.90;99.90
9103;DHT22;4587;51.434;6.788;2022-10-22T10:41:26;18.00;99.90
9103;DHT22;4587;51.434;6.788;2022-10-22T10:46:44;18.00;99.90
9103;DHT22;4587;51.434;6.788;2022-10-22T10:49:29;18.00;99.90
9103;DHT22;4587;51.434;6.788;2022-10-22T11:00:08;18.10;99.90
9103;DHT22;4587;51.434;6.788;2022-10-22T11:07:40;18.20;99.90
9103;DHT22;4587;51.434;6.788;2022-10-22T11:10:34;18.20;99.90
9103;DHT22;4587;51.434;6.788;2022-10-22T11:15:35;18.20;99.90
9103;DHT22;4587;51.434;6.788;2022-10-22T11:18:17;18.20;99.90
9103;DHT22;4587;51.434;6.788;2022-10-22T11:23:21;18.30;99.90
9103;DHT22;4587;51.434;6.788;2022-10-22T11:25:49;18.40;99.90
9103;DHT22;4587;51.434;6.788;2022-10-22T11:28:36;18.40;99.90
9103;DHT22;4587;51.434;6.788;2022-10-22T11:31:11;18.40;99.90
9103;DHT22;4587;51.434;6.788;2022-10-22T11:36:11;18.30;99.90
9103;DHT22;4587;51.434;6.788;2022-10-22T11:38:37;18.20;99.90
9103;DHT22;4587;51.434;6.788;2022-10-22T11:41:12;18.20;99.90
9103;DHT22;4587;51.434;6.788;2022-10-22T11:49:46;18.10;99.90
9103;DHT22;4587;51.434;6.788;2022-10-22T11:51:45;18.10;99.90
9103;DHT22;4587;51.434;6.788;2022-10-22T11:59:46;18.00;99.90
9103;DHT22;4587;51.434;6.788;2022-10-22T12:02:39;18.10;99.90
9103;DHT22;4587;51.434;6.788;2022-10-22T12:10:48;18.10;99.90
9103;DHT22;4587;51.434;6.788;2022-10-22T12:13:24;18.10;99.90
9103;DHT22;4587;51.434;6.788;2022-10-22T12:15:53;18.10;99.90
9103;DHT22;4587;51.434;6.788;2022-10-22T12:18:34;18.10;99.90
9103;DHT22;4587;51.434;6.788;2022-10-22T12:21:03;18.10;99.90
9103;DHT22;4587;51.434;6.788;2022-10-22T12:23:33;18.10;99.90
9103;DHT22;4587;51.434;6.788;2022-10-22T12:25:59;18.20;99.90
9103;DHT22;4587;51.434;6.788;2022-10-22T12:28:25;18.20;99.90
9103;DHT22;4587;51.434;6.788;2022-10-22T12:30:50;18.20;99.90
9103;DHT22;4587;51.434;6.788;2022-10-22T12:33:21;18.20;99.90
9103;DHT22;4587;51.434;6.788;2022-10-22T12:35:49;18.20;99.90
9103;DHT22;4587;51.434;6.788;2022-10-22T12:38:20;18.20;99.90
9103;DHT22;4587;51.434;6.788;2022-10-22T12:40:47;18.30;99.90
9103;DHT22;4587;51.434;6.788;2022-10-22T12:43:17;18.30;99.90
9103;DHT22;4587;51.434;6.788;2022-10-22T12:45:45;18.30;99.90
9103;DHT22;4587;51.434;6.788;2022-10-22T12:48:18;18.40;99.90
9103;DHT22;4587;51.434;6.788;2022-10-22T12:50:52;18.40;99.90
9103;DHT22;4587;51.434;6.788;2022-10-22T12:53:40;18.40;99.90
9103;DHT22;4587;51.434;6.788;2022-10-22T12:56:12;18.40;99.90
9103;DHT22;4587;51.434;6.788;2022-10-22T12:58:45;18.40;99.90
9103;DHT22;4587;51.434;6.788;2022-10-22T13:01:13;18.40;99.90
9103;DHT22;4587;51.434;6.788;2022-10-22T13:03:48;18.40;99.90
9103;DHT22;4587;51.434;6.788;2022-10-22T13:09:36;18.40;99.90
9103;DHT22;4587;51.434;6.788;2022-10-22T13:11:47;18.40;99.90
9103;DHT22;4587;51.434;6.788;2022-10-22T13:17:16;18.50;99.90
9103;DHT22;4587;51.434;6.788;2022-10-22T13:24:53;18.60;99.90
9103;DHT22;4587;51.434;6.788;2022-10-22T13:27:21;18.60;99.90
9103;DHT22;4587;51.434;6.788;2022-10-22T13:29:47;18.60;99.90
9103;DHT22;4587;51.434;6.788;2022-10-22T13:32:31;18.60;99.90
9103;DHT22;4587;51.434;6.788;2022-10-22T13:35:02;18.50;99.90
9103;DHT22;4587;51.434;6.788;2022-10-22T13:37:30;18.40;99.90
9103;DHT22;4587;51.434;6.788;2022-10-22T13:39:56;18.50;99.90
9103;DHT22;4587;51.434;6.788;2022-10-22T13:42:22;18.60;99.90
9103;DHT22;4587;51.434;6.788;2022-10-22T13:44:47;18.50;99.90
9103;DHT22;4587;51.434;6.788;2022-10-22T13:47:26;18.60;99.90
9103;DHT22;4587;51.434;6.788;2022-10-22T13:50:00;18.60;99.90
9103;DHT22;4587;51.434;6.788;2022-10-22T13:52:37;18.60;99.90
9103;DHT22;4587;51.434;6.788;2022-10-22T13:55:16;18.60;99.90
9103;DHT22;4587;51.434;6.788;2022-10-22T13:57:42;18.60;99.90
9103;DHT22;4587;51.434;6.788;2022-10-22T14:00:12;18.60;99.90
9103;DHT22;4587;51.434;6.788;2022-10-22T14:02:38;18.50;99.90
9103;DHT22;4587;51.434;6.788;2022-10-22T14:05:04;18.50;99.90
9103;DHT22;4587;51.434;6.788;2022-10-22T14:07:34;18.50;99.90
9103;DHT22;4587;51.434;6.788;2022-10-22T14:09:59;18.50;99.90
9103;DHT22;4587;51.434;6.788;2022-10-22T14:12:25;18.40;99.90
9103;DHT22;4587;51.434;6.788;2022-10-22T14:14:52;18.40;99.90
9103;DHT22;4587;51.434;6.788;2022-10-22T14:17:18;18.30;99.90
9103;DHT22;4587;51.434;6.788;2022-10-22T14:19:46;18.30;99.90
9103;DHT22;4587;51.434;6.788;2022-10-22T14:22:14;18.20;99.90
9103;DHT22;4587;51.434;6.788;2022-10-22T14:24:40;18.20;99.90
9103;DHT22;4587;51.434;6.788;2022-10-22T14:27:05;18.20;99.90
9103;DHT22;4587;51.434;6.788;2022-10-22T14:29:31;18.20;99.90
9103;DHT22;4587;51.434;6.788;2022-10-22T14:31:56;18.30;99.90
9103;DHT22;4587;51.434;6.788;2022-10-22T14:34:22;18.20;99.90
9103;DHT22;4587;51.434;6.788;2022-10-22T14:36:47;18.20;99.90
9103;DHT22;4587;51.434;6.788;2022-10-22T14:39:13;18.20;99.90
9103;DHT22;4587;51.434;6.788;2022-10-22T14:41:39;18.10;99.90
9103;DHT22;4587;51.434;6.788;2022-10-22T14:44:05;18.20;99.90
9103;DHT22;4587;51.434;6.788;2022-10-22T14:46:30;18.20;99.90
9103;DHT22;4587;51.434;6.788;2022-10-22T14:48:56;18.10;99.90
9103;DHT22;4587;51.434;6.788;2022-10-22T14:51:22;18.10;99.90
9103;DHT22;4587;51.434;6.788;2022-10-22T14:53:50;18.10;99.90
9103;DHT22;4587;51.434;6.788;2022-10-22T14:56:17;18.10;99.90
9103;DHT22;4587;51.434;6.788;2022-10-22T14:58:45;18.10;99.90
9103;DHT22;4587;51.434;6.788;2022-10-22T15:01:11;18.00;99.90
9103;DHT22;4587;51.434;6.788;2022-10-22T15:03:36;18.10;99.90
9103;DHT22;4587;51.434;6.788;2022-10-22T15:06:03;18.10;99.90
9103;DHT22;4587;51.434;6.788;2022-10-22T15:08:29;18.10;99.90
9103;DHT22;4587;51.434;6.788;2022-10-22T15:11:04;18.20;99.90
9103;DHT22;4587;51.434;6.788;2022-10-22T15:13:30;18.20;99.90
9103;DHT22;4587;51.434;6.788;2022-10-22T15:15:57;18.30;99.90
9103;DHT22;4587;51.434;6.788;2022-10-22T15:18:23;18.20;99.90
9103;DHT22;4587;51.434;6.788;2022-10-22T15:20:59;18.20;99.90
9103;DHT22;4587;51.434;6.788;2022-10-22T15:23:25;18.10;99.90
9103;DHT22;4587;51.434;6.788;2022-10-22T15:25:51;18.10;99.90
9103;DHT22;4587;51.434;6.788;2022-10-22T15:28:17;18.10;99.90
9103;DHT22;4587;51.434;6.788;2022-10-22T15:30:42;18.00;99.90
9103;DHT22;4587;51.434;6.788;2022-10-22T15:33:08;17.90;99.90
9103;DHT22;4587;51.434;6.788;2022-10-22T15:35:35;17.80;99.90
9103;DHT22;4587;51.434;6.788;2022-10-22T15:38:00;17.80;99.90
9103;DHT22;4587;51.434;6.788;2022-10-22T15:40:26;17.80;99.90
9103;DHT22;4587;51.434;6.788;2022-10-22T15:42:51;17.80;99.90
9103;DHT22;4587;51.434;6.788;2022-10-22T15:45:17;17.70;99.90
9103;DHT22;4587;51.434;6.788;2022-10-22T15:47:46;17.70;99.90
9103;DHT22;4587;51.434;6.788;2022-10-22T15:50:11;17.60;99.90
9103;DHT22;4587;51.434;6.788;2022-10-22T15:52:37;17.50;99.90
9103;DHT22;4587;51.434;6.788;2022-10-22T15:55:03;17.40;99.90
9103;DHT22;4587;51.434;6.788;2022-10-22T15:57:31;17.30;99.90
9103;DHT22;4587;51.434;6.788;2022-10-22T15:59:57;17.20;99.90
9103;DHT22;4587;51.434;6.788;2022-10-22T16:02:23;17.10;99.90
9103;DHT22;4587;51.434;6.788;2022-10-22T16:04:48;17.00;99.90
9103;DHT22;4587;51.434;6.788;2022-10-22T16:07:14;17.00;99.90
9103;DHT22;4587;51.434;6.788;2022-10-22T16:09:39;17.00;99.90
9103;DHT22;4587;51.434;6.788;2022-10-22T16:12:05;16.90;99.90
9103;DHT22;4587;51.434;6.788;2022-10-22T16:14:31;16.90;99.90
9103;DHT22;4587;51.434;6.788;2022-10-22T16:16:56;16.80;99.90
9103;DHT22;4587;51.434;6.788;2022-10-22T16:19:24;16.80;99.90
9103;DHT22;4587;51.434;6.788;2022-10-22T16:21:51;16.70;99.90
9103;DHT22;4587;51.434;6.788;2022-10-22T16:24:17;16.60;99.90
9103;DHT22;4587;51.434;6.788;2022-10-22T16:26:43;16.50;99.90
9103;DHT22;4587;51.434;6.788;2022-10-22T16:29:09;16.40;99.90
9103;DHT22;4587;51.434;6.788;2022-10-22T16:31:37;16.40;99.90
9103;DHT22;4587;51.434;6.788;2022-10-22T16:34:03;16.30;99.90
9103;DHT22;4587;51.434;6.788;2022-10-22T16:36:29;16.30;99.90
9103;DHT22;4587;51.434;6.788;2022-10-22T16:38:54;16.20;99.90
9103;DHT22;4587;51.434;6.788;2022-10-22T16:41:22;16.10;99.90
9103;DHT22;4587;51.434;6.788;2022-10-22T16:43:50;16.10;99.90
9103;DHT22;4587;51.434;6.788;2022-10-22T16:46:18;16.00;99.90
9103;DHT22;4587;51.434;6.788;2022-10-22T16:48:48;15.90;99.90
9103;DHT22;4587;51.434;6.788;2022-10-22T16:51:16;15.90;99.90
9103;DHT22;4587;51.434;6.788;2022-10-22T16:53:42;15.80;99.90
9103;DHT22;4587;51.434;6.788;2022-10-22T16:56:09;15.70;99.90
9103;DHT22;4587;51.434;6.788;2022-10-22T16:58:35;15.70;99.90
9103;DHT22;4587;51.434;6.788;2022-10-22T17:01:05;15.60;99.90
9103;DHT22;4587;51.434;6.788;2022-10-22T17:03:31;15.50;99.90
9103;DHT22;4587;51.434;6.788;2022-10-22T17:06:00;15.50;99.90
9103;DHT22;4587;51.434;6.788;2022-10-22T17:08:26;15.40;99.90
9103;DHT22;4587;51.434;6.788;2022-10-22T17:10:51;15.30;99.90
9103;DHT22;4587;51.434;6.788;2022-10-22T17:13:17;15.20;99.90
9103;DHT22;4587;51.434;6.788;2022-10-22T17:15:42;15.20;99.90
9103;DHT22;4587;51.434;6.788;2022-10-22T17:18:09;15.20;99.90
9103;DHT22;4587;51.434;6.788;2022-10-22T17:20:39;15.10;99.90
9103;DHT22;4587;51.434;6.788;2022-10-22T17:23:05;15.10;99.90
9103;DHT22;4587;51.434;6.788;2022-10-22T17:25:41;15.10;99.90
9103;DHT22;4587;51.434;6.788;2022-10-22T17:28:09;15.10;99.90
9103;DHT22;4587;51.434;6.788;2022-10-22T17:30:35;15.00;99.90
9103;DHT22;4587;51.434;6.788;2022-10-22T17:33:08;15.00;99.90
9103;DHT22;4587;51.434;6.788;2022-10-22T17:35:38;14.90;99.90
9103;DHT22;4587;51.434;6.788;2022-10-22T17:38:04;14.90;99.90
9103;DHT22;4587;51.434;6.788;2022-10-22T17:40:31;14.90;99.90
9103;DHT22;4587;51.434;6.788;2022-10-22T17:42:56;14.90;99.90
9103;DHT22;4587;51.434;6.788;2022-10-22T17:45:22;14.90;99.90
9103;DHT22;4587;51.434;6.788;2022-10-22T17:47:48;14.90;99.90